sensor_id;sensor_type;location;lat;lon;timestamp;pressure;altitude;pressure_sealevel;temperature;humidity
54172;BME280;40076;52.354;4.970;2023-05-11T00:01:17;101502.06;;;14.39;100.00
54172;BME280;40076;52.354;4.970;2023-05-11T00:03:42;101498.56;;;14.38;100.00
54172;BME280;40076;52.354;4.970;2023-05-11T00:06:08;101502.38;;;14.37;100.00
54172;BME280;40076;52.354;4.970;2023-05-11T00:08:33;101499.97;;;14.36;100.00
54172;BME280;40076;52.354;4.970;2023-05-11T00:10:59;101497.59;;;14.34;100.00
54172;BME280;40076;52.354;4.970;2023-05-11T00:13:27;101506.88;;;14.33;100.00
54172;BME280;40076;52.354;4.970;2023-05-11T00:15:53;101501.44;;;14.33;100.00
54172;BME280;40076;52.354;4.970;2023-05-11T00:18:19;101496.00;;;14.33;100.00
54172;BME280;40076;52.354;4.970;2023-05-11T00:20:44;101492.81;;;14.31;100.00
54172;BME280;40076;52.354;4.970;2023-05-11T00:23:10;101483.06;;;14.30;100.00
54172;BME280;40076;52.354;4.970;2023-05-11T00:25:35;101488.38;;;14.26;100.00
54172;BME280;40076;52.354;4.970;2023-05-11T00:28:01;101488.38;;;14.26;100.00
54172;BME280;40076;52.354;4.970;2023-05-11T00:30:26;101491.41;;;14.25;100.00
54172;BME280;40076;52.354;4.970;2023-05-11T00:32:52;101485.50;;;14.23;100.00
54172;BME280;40076;52.354;4.970;2023-05-11T00:35:17;101490.94;;;14.23;100.00
54172;BME280;40076;52.354;4.970;2023-05-11T00:37:43;101497.47;;;14.22;100.00
54172;BME280;40076;52.354;4.970;2023-05-11T00:40:08;101493.16;;;14.21;100.00
54172;BME280;40076;52.354;4.970;2023-05-11T00:42:34;101493.16;;;14.21;100.00
54172;BME280;40076;52.354;4.970;2023-05-11T00:45:00;101499.28;;;14.18;100.00
54172;BME280;40076;52.354;4.970;2023-05-11T00:47:26;101498.00;;;14.15;100.00
54172;BME280;40076;52.354;4.970;2023-05-11T00:49:52;101500.72;;;14.15;100.00
54172;BME280;40076;52.354;4.970;2023-05-11T00:52:18;101490.63;;;14.16;100.00
54172;BME280;40076;52.354;4.970;2023-05-11T00:54:46;101482.50;;;14.16;100.00
54172;BME280;40076;52.354;4.970;2023-05-11T00:57:12;101485.53;;;14.14;100.00
54172;BME280;40076;52.354;4.970;2023-05-11T00:59:38;101485.53;;;14.14;100.00
54172;BME280;40076;52.354;4.970;2023-05-11T01:02:04;101481.22;;;14.13;100.00
54172;BME280;40076;52.354;4.970;2023-05-11T01:04:31;101489.38;;;14.13;100.00
54172;BME280;40076;52.354;4.970;2023-05-11T01:14:40;101487.63;;;14.09;100.00
54172;BME280;40076;52.354;4.970;2023-05-11T01:17:17;101495.00;;;14.08;100.00
54172;BME280;40076;52.354;4.970;2023-05-11T01:19:52;101495.00;;;14.08;100.00
54172;BME280;40076;52.354;4.970;2023-05-11T01:30:35;101498.34;;;14.05;100.00
54172;BME280;40076;52.354;4.970;2023-05-11T01:33:09;101499.94;;;14.06;100.00
54172;BME280;40076;52.354;4.970;2023-05-11T01:35:40;101495.31;;;14.07;100.00
54172;BME280;40076;52.354;4.970;2023-05-11T01:38:10;101495.78;;;14.09;100.00
54172;BME280;40076;52.354;4.970;2023-05-11T01:40:38;101507.13;;;14.11;100.00
54172;BME280;40076;52.354;4.970;2023-05-11T01:43:12;101503.44;;;14.15;100.00
54172;BME280;40076;52.354;4.970;2023-05-11T01:45:40;101503.91;;;14.17;100.00
54172;BME280;40076;52.354;4.970;2023-05-11T01:48:10;101506.16;;;14.15;100.00
54172;BME280;40076;52.354;4.970;2023-05-11T01:50:38;101503.75;;;14.14;100.00
54172;BME280;40076;52.354;4.970;2023-05-11T01:53:05;101503.28;;;14.12;100.00
54172;BME280;40076;52.354;4.970;2023-05-11T01:55:33;101500.56;;;14.12;100.00
54172;BME280;40076;52.354;4.970;2023-05-11T01:58:01;101502.94;;;14.13;100.00
54172;BME280;40076;52.354;4.970;2023-05-11T02:00:28;101499.91;;;14.15;100.00
54172;BME280;40076;52.354;4.970;2023-05-11T02:02:55;101503.44;;;14.15;100.00
54172;BME280;40076;52.354;4.970;2023-05-11T02:05:22;101503.75;;;14.14;100.00
54172;BME280;40076;52.354;4.970;2023-05-11T02:07:50;101509.06;;;14.10;100.00
54172;BME280;40076;52.354;4.970;2023-05-11T02:10:16;101507.47;;;14.09;100.00
54172;BME280;40076;52.354;4.970;2023-05-11T02:12:43;101509.84;;;14.11;100.00
54172;BME280;40076;52.354;4.970;2023-05-11T02:15:10;101507.13;;;14.11;100.00
54172;BME280;40076;52.354;4.970;2023-05-11T02:17:38;101512.56;;;14.11;100.00
54172;BME280;40076;52.354;4.970;2023-05-11T02:20:06;101512.09;;;14.09;100.00
54172;BME280;40076;52.354;4.970;2023-05-11T02:22:34;101506.66;;;14.09;100.00
54172;BME280;40076;52.354;4.970;2023-05-11T02:25:00;101516.41;;;14.10;100.00
54172;BME280;40076;52.354;4.970;2023-05-11T02:27:26;101507.47;;;14.09;100.00
54172;BME280;40076;52.354;4.970;2023-05-11T02:29:52;101510.97;;;14.10;100.00
54172;BME280;40076;52.354;4.970;2023-05-11T02:32:19;101510.19;;;14.09;100.00
54172;BME280;40076;52.354;4.970;2023-05-11T02:34:56;101514.00;;;14.08;100.00
54172;BME280;40076;52.354;4.970;2023-05-11T02:37:24;101514.00;;;14.08;100.00
54172;BME280;40076;52.354;4.970;2023-05-11T02:39:58;101515.13;;;14.07;100.00
54172;BME280;40076;52.354;4.970;2023-05-11T02:42:26;101519.28;;;14.05;100.00
54172;BME280;40076;52.354;4.970;2023-05-11T02:45:13;101523.13;;;14.04;100.00
54172;BME280;40076;52.354;4.970;2023-05-11T02:47:44;101517.69;;;14.04;100.00
54172;BME280;40076;52.354;4.970;2023-05-11T02:50:11;101523.91;;;14.04;100.00
54172;BME280;40076;52.354;4.970;2023-05-11T02:52:44;101518.50;;;14.04;100.00
54172;BME280;40076;52.354;4.970;2023-05-11T02:55:12;101521.19;;;14.04;100.00
54172;BME280;40076;52.354;4.970;2023-05-11T02:57:39;101518.03;;;14.02;100.00
54172;BME280;40076;52.354;4.970;2023-05-11T03:00:05;101512.91;;;14.01;100.00
54172;BME280;40076;52.354;4.970;2023-05-11T03:02:30;101523.00;;;14.00;100.00
54172;BME280;40076;52.354;4.970;2023-05-11T03:04:56;101521.41;;;13.99;100.00
54172;BME280;40076;52.354;4.970;2023-05-11T03:07:21;101526.03;;;13.99;100.00
54172;BME280;40076;52.354;4.970;2023-05-11T03:09:46;101517.41;;;13.97;100.00
54172;BME280;40076;52.354;4.970;2023-05-11T03:12:13;101518.53;;;13.96;100.00
54172;BME280;40076;52.354;4.970;2023-05-11T03:14:44;101530.53;;;13.95;100.00
54172;BME280;40076;52.354;4.970;2023-05-11T03:17:11;101526.69;;;13.96;100.00
54172;BME280;40076;52.354;4.970;2023-05-11T03:19:37;101530.19;;;13.96;100.00
54172;BME280;40076;52.354;4.970;2023-05-11T03:22:03;101527.81;;;13.95;100.00
54172;BME280;40076;52.354;4.970;2023-05-11T03:24:29;101528.94;;;13.94;100.00
54172;BME280;40076;52.354;4.970;2023-05-11T03:26:56;101523.50;;;13.94;100.00
54172;BME280;40076;52.354;4.970;2023-05-11T03:29:24;101515.34;;;13.94;100.00
54172;BME280;40076;52.354;4.970;2023-05-11T03:31:49;101520.28;;;13.91;100.00
54172;BME280;40076;52.354;4.970;2023-05-11T03:34:15;101513.25;;;13.90;100.00
54172;BME280;40076;52.354;4.970;2023-05-11T03:36:41;101515.19;;;13.90;100.00
54172;BME280;40076;52.354;4.970;2023-05-11T03:39:10;101516.66;;;13.87;100.00
54172;BME280;40076;52.354;4.970;2023-05-11T03:41:38;101515.03;;;13.86;100.00
54172;BME280;40076;52.354;4.970;2023-05-11T03:44:04;101512.66;;;13.85;100.00
54172;BME280;40076;52.354;4.970;2023-05-11T03:46:34;101511.84;;;13.84;100.00
54172;BME280;40076;52.354;4.970;2023-05-11T03:49:03;101511.06;;;13.84;100.00
54172;BME280;40076;52.354;4.970;2023-05-11T03:51:29;101509.13;;;13.84;100.00
54172;BME280;40076;52.354;4.970;2023-05-11T03:53:56;101512.97;;;13.83;100.00
54172;BME280;40076;52.354;4.970;2023-05-11T03:56:22;101500.19;;;13.84;100.00
54172;BME280;40076;52.354;4.970;2023-05-11T03:58:47;101507.22;;;13.85;100.00
54172;BME280;40076;52.354;4.970;2023-05-11T04:01:13;101508.00;;;13.85;100.00
54172;BME280;40076;52.354;4.970;2023-05-11T04:03:51;101502.59;;;13.85;100.00
54172;BME280;40076;52.354;4.970;2023-05-11T04:06:17;101499.88;;;13.85;100.00
54172;BME280;40076;52.354;4.970;2023-05-11T04:08:43;101504.50;;;13.85;100.00
54172;BME280;40076;52.354;4.970;2023-05-11T04:11:09;101504.50;;;13.85;100.00
54172;BME280;40076;52.354;4.970;2023-05-11T04:13:34;101508.00;;;13.85;100.00
54172;BME280;40076;52.354;4.970;2023-05-11T04:15:59;101506.91;;;13.86;100.00
54172;BME280;40076;52.354;4.970;2023-05-11T04:18:25;101510.41;;;13.87;100.00
54172;BME280;40076;52.354;4.970;2023-05-11T04:20:50;101514.38;;;13.89;100.00
54172;BME280;40076;52.354;4.970;2023-05-11T04:23:16;101512.47;;;13.90;100.00
54172;BME280;40076;52.354;4.970;2023-05-11T04:25:41;101512.47;;;13.90;100.00
54172;BME280;40076;52.354;4.970;2023-05-11T04:28:06;101511.34;;;13.91;100.00
54172;BME280;40076;52.354;4.970;2023-05-11T04:30:32;101512.47;;;13.90;100.00
54172;BME280;40076;52.354;4.970;2023-05-11T04:32:57;101510.56;;;13.90;100.00
54172;BME280;40076;52.354;4.970;2023-05-11T04:35:22;101510.88;;;13.89;100.00
54172;BME280;40076;52.354;4.970;2023-05-11T04:37:49;101500.34;;;13.87;100.00
54172;BME280;40076;52.354;4.970;2023-05-11T04:40:14;101506.59;;;13.88;100.00
54172;BME280;40076;52.354;4.970;2023-05-11T04:42:40;101494.91;;;13.87;100.00
54172;BME280;40076;52.354;4.970;2023-05-11T04:45:06;101503.88;;;13.88;100.00
54172;BME280;40076;52.354;4.970;2023-05-11T04:47:31;101501.16;;;13.88;100.00
54172;BME280;40076;52.354;4.970;2023-05-11T04:49:56;101495.72;;;13.88;100.00
54172;BME280;40076;52.354;4.970;2023-05-11T04:52:22;101507.34;;;13.88;100.00
54172;BME280;40076;52.354;4.970;2023-05-11T04:54:47;101506.59;;;13.88;100.00
54172;BME280;40076;52.354;4.970;2023-05-11T04:57:12;101508.94;;;13.89;100.00
54172;BME280;40076;52.354;4.970;2023-05-11T04:59:37;101514.72;;;13.88;100.00
54172;BME280;40076;52.354;4.970;2023-05-11T05:02:03;101514.72;;;13.88;100.00
54172;BME280;40076;52.354;4.970;2023-05-11T05:04:28;101526.38;;;13.88;100.00
54172;BME280;40076;52.354;4.970;2023-05-11T05:06:54;101518.22;;;13.88;100.00
54172;BME280;40076;52.354;4.970;2023-05-11T05:09:19;101528.31;;;13.88;100.00
54172;BME280;40076;52.354;4.970;2023-05-11T05:11:44;101535.66;;;13.87;100.00
54172;BME280;40076;52.354;4.970;2023-05-11T05:14:09;101534.88;;;13.87;100.00
54172;BME280;40076;52.354;4.970;2023-05-11T05:16:35;101543.00;;;13.87;100.00
54172;BME280;40076;52.354;4.970;2023-05-11T05:19:00;101547.66;;;13.86;100.00
54172;BME280;40076;52.354;4.970;2023-05-11T05:21:26;101548.75;;;13.85;100.00
54172;BME280;40076;52.354;4.970;2023-05-11T05:23:51;101548.75;;;13.85;100.00
54172;BME280;40076;52.354;4.970;2023-05-11T05:26:16;101546.84;;;13.86;100.00
54172;BME280;40076;52.354;4.970;2023-05-11T05:28:42;101549.56;;;13.86;100.00
54172;BME280;40076;52.354;4.970;2023-05-11T05:31:07;101551.97;;;13.87;100.00
54172;BME280;40076;52.354;4.970;2023-05-11T05:33:32;101557.84;;;13.89;100.00
54172;BME280;40076;52.354;4.970;2023-05-11T05:35:58;101555.13;;;13.89;100.00
54172;BME280;40076;52.354;4.970;2023-05-11T05:38:23;101563.28;;;13.89;100.00
54172;BME280;40076;52.354;4.970;2023-05-11T05:40:48;101558.97;;;13.88;100.00
54172;BME280;40076;52.354;4.970;2023-05-11T05:43:14;101561.38;;;13.90;100.00
54172;BME280;40076;52.354;4.970;2023-05-11T05:45:39;101568.09;;;13.93;100.00
54172;BME280;40076;52.354;4.970;2023-05-11T05:48:05;101567.78;;;13.94;100.00
54172;BME280;40076;52.354;4.970;2023-05-11T05:50:31;101568.22;;;13.96;100.00
54172;BME280;40076;52.354;4.970;2023-05-11T05:52:57;101574.13;;;13.98;100.00
54172;BME280;40076;52.354;4.970;2023-05-11T05:55:22;101574.63;;;14.00;100.00
54172;BME280;40076;52.354;4.970;2023-05-11T05:57:48;101581.34;;;14.03;100.00
54172;BME280;40076;52.354;4.970;2023-05-11T06:00:13;101584.50;;;14.05;100.00
54172;BME280;40076;52.354;4.970;2023-05-11T06:02:39;101588.50;;;14.07;100.00
54172;BME280;40076;52.354;4.970;2023-05-11T06:05:05;101587.06;;;14.10;100.00
54172;BME280;40076;52.354;4.970;2023-05-11T06:07:31;101582.56;;;14.14;100.00
54172;BME280;40076;52.354;4.970;2023-05-11T06:09:57;101586.56;;;14.16;100.00
54172;BME280;40076;52.354;4.970;2023-05-11T06:12:22;101585.91;;;14.19;100.00
54172;BME280;40076;52.354;4.970;2023-05-11T06:14:48;101591.03;;;14.21;100.00
54172;BME280;40076;52.354;4.970;2023-05-11T06:17:13;101597.75;;;14.23;100.00
54172;BME280;40076;52.354;4.970;2023-05-11T06:19:38;101594.69;;;14.25;100.00
54172;BME280;40076;52.354;4.970;2023-05-11T06:22:04;101594.38;;;14.26;100.00
54172;BME280;40076;52.354;4.970;2023-05-11T06:24:30;101595.63;;;14.29;100.00
54172;BME280;40076;52.354;4.970;2023-05-11T06:26:55;101598.84;;;14.31;100.00
54172;BME280;40076;52.354;4.970;2023-05-11T06:29:21;101598.19;;;14.34;100.00
54172;BME280;40076;52.354;4.970;2023-05-11T06:31:47;101596.72;;;14.37;100.00
54172;BME280;40076;52.354;4.970;2023-05-11T06:34:19;101589.88;;;14.39;100.00
54172;BME280;40076;52.354;4.970;2023-05-11T06:36:45;101593.53;;;14.43;100.00
54172;BME280;40076;52.354;4.970;2023-05-11T06:39:11;101597.53;;;14.46;100.00
54172;BME280;40076;52.354;4.970;2023-05-11T06:41:36;101596.09;;;14.48;100.00
54172;BME280;40076;52.354;4.970;2023-05-11T06:44:01;101590.28;;;14.50;100.00
54172;BME280;40076;52.354;4.970;2023-05-11T06:46:27;101593.19;;;14.53;100.00
54172;BME280;40076;52.354;4.970;2023-05-11T06:48:52;101589.00;;;14.56;100.00
54172;BME280;40076;52.354;4.970;2023-05-11T06:51:17;101592.19;;;14.58;100.00
54172;BME280;40076;52.354;4.970;2023-05-11T06:53:45;101598.91;;;14.60;100.00
54172;BME280;40076;52.354;4.970;2023-05-11T06:56:10;101592.03;;;14.63;100.00
54172;BME280;40076;52.354;4.970;2023-05-11T06:58:35;101596.78;;;14.66;100.00
54172;BME280;40076;52.354;4.970;2023-05-11T07:01:01;101603.81;;;14.67;100.00
54172;BME280;40076;52.354;4.970;2023-05-11T07:03:29;101597.25;;;14.68;100.00
54172;BME280;40076;52.354;4.970;2023-05-11T07:05:54;101592.63;;;14.68;100.00
54172;BME280;40076;52.354;4.970;2023-05-11T07:08:20;101600.47;;;14.70;100.00
54172;BME280;40076;52.354;4.970;2023-05-11T07:10:45;101600.16;;;14.72;100.00
54172;BME280;40076;52.354;4.970;2023-05-11T07:13:10;101599.00;;;14.73;100.00
54172;BME280;40076;52.354;4.970;2023-05-11T07:15:36;101596.75;;;14.75;100.00
54172;BME280;40076;52.354;4.970;2023-05-11T07:18:01;101603.78;;;14.76;100.00
54172;BME280;40076;52.354;4.970;2023-05-11T07:20:26;101603.78;;;14.76;100.00
54172;BME280;40076;52.354;4.970;2023-05-11T07:22:55;101604.25;;;14.78;100.00
54172;BME280;40076;52.354;4.970;2023-05-11T07:25:21;101599.63;;;14.78;100.00
54172;BME280;40076;52.354;4.970;2023-05-11T07:27:46;101600.41;;;14.79;100.00
54172;BME280;40076;52.354;4.970;2023-05-11T07:30:12;101606.31;;;14.81;100.00
54172;BME280;40076;52.354;4.970;2023-05-11T07:32:37;101602.47;;;14.82;100.00
54172;BME280;40076;52.354;4.970;2023-05-11T07:35:03;101601.81;;;14.85;100.00
54172;BME280;40076;52.354;4.970;2023-05-11T07:37:28;101609.66;;;14.86;100.00
54172;BME280;40076;52.354;4.970;2023-05-11T07:39:53;101608.53;;;14.87;100.00
54172;BME280;40076;52.354;4.970;2023-05-11T07:42:18;101604.22;;;14.86;100.00
54172;BME280;40076;52.354;4.970;2023-05-11T07:44:44;101610.13;;;14.88;100.00
54172;BME280;40076;52.354;4.970;2023-05-11T07:47:09;101613.97;;;14.87;100.00
54172;BME280;40076;52.354;4.970;2023-05-11T07:49:34;101612.03;;;14.88;100.00
54172;BME280;40076;52.354;4.970;2023-05-11T07:52:00;101616.72;;;14.87;100.00
54172;BME280;40076;52.354;4.970;2023-05-11T07:54:25;101607.75;;;14.87;100.00
54172;BME280;40076;52.354;4.970;2023-05-11T07:56:50;101609.31;;;14.88;100.00
54172;BME280;40076;52.354;4.970;2023-05-11T07:59:16;101615.91;;;14.87;100.00
54172;BME280;40076;52.354;4.970;2023-05-11T08:01:41;101615.91;;;14.87;100.00
54172;BME280;40076;52.354;4.970;2023-05-11T08:04:06;101620.56;;;14.86;100.00
54172;BME280;40076;52.354;4.970;2023-05-11T08:06:31;101622.47;;;14.86;100.00
54172;BME280;40076;52.354;4.970;2023-05-11T08:08:57;101627.44;;;14.84;100.00
54172;BME280;40076;52.354;4.970;2023-05-11T08:11:22;101628.56;;;14.83;100.00
54172;BME280;40076;52.354;4.970;2023-05-11T08:13:48;101627.44;;;14.84;100.00
54172;BME280;40076;52.354;4.970;2023-05-11T08:16:13;101626.63;;;14.83;100.00
54172;BME280;40076;52.354;4.970;2023-05-11T08:18:39;101626.31;;;14.85;100.00
54172;BME280;40076;52.354;4.970;2023-05-11T08:21:04;101634.47;;;14.85;100.00
54172;BME280;40076;52.354;4.970;2023-05-11T08:23:29;101629.34;;;14.83;100.00
54172;BME280;40076;52.354;4.970;2023-05-11T08:25:55;101630.16;;;14.84;100.00
54172;BME280;40076;52.354;4.970;2023-05-11T08:28:21;101630.16;;;14.84;100.00
54172;BME280;40076;52.354;4.970;2023-05-11T08:30:53;101633.69;;;14.84;100.00
54172;BME280;40076;52.354;4.970;2023-05-11T08:33:19;101630.97;;;14.84;100.00
54172;BME280;40076;52.354;4.970;2023-05-11T08:35:44;101631.75;;;14.85;100.00
54172;BME280;40076;52.354;4.970;2023-05-11T08:38:09;101633.69;;;14.84;100.00
54172;BME280;40076;52.354;4.970;2023-05-11T08:40:35;101633.34;;;14.86;100.00
54172;BME280;40076;52.354;4.970;2023-05-11T08:43:03;101643.13;;;14.87;100.00
54172;BME280;40076;52.354;4.970;2023-05-11T08:45:30;101639.72;;;14.90;100.00
54172;BME280;40076;52.354;4.970;2023-05-11T08:47:56;101639.88;;;14.93;100.00
54172;BME280;40076;52.354;4.970;2023-05-11T08:50:22;101636.47;;;14.96;100.00
54172;BME280;40076;52.354;4.970;2023-05-11T08:52:47;101642.41;;;14.98;100.00
54172;BME280;40076;52.354;4.970;2023-05-11T08:55:13;101644.81;;;15.00;100.00
54172;BME280;40076;52.354;4.970;2023-05-11T08:57:39;101638.22;;;15.01;100.00
54172;BME280;40076;52.354;4.970;2023-05-11T09:00:06;101643.34;;;15.02;100.00
54172;BME280;40076;52.354;4.970;2023-05-11T09:02:32;101644.59;;;15.05;100.00
54172;BME280;40076;52.354;4.970;2023-05-11T09:04:58;101640.91;;;15.10;100.00
54172;BME280;40076;52.354;4.970;2023-05-11T09:07:26;101644.88;;;15.12;100.00
54172;BME280;40076;52.354;4.970;2023-05-11T09:09:52;101643.44;;;15.15;100.00
54172;BME280;40076;52.354;4.970;2023-05-11T09:12:18;101643.44;;;15.15;100.00
54172;BME280;40076;52.354;4.970;2023-05-11T09:14:44;101643.44;;;15.15;100.00
54172;BME280;40076;52.354;4.970;2023-05-11T09:17:11;101636.06;;;15.15;100.00
54172;BME280;40076;52.354;4.970;2023-05-11T09:19:36;101641.50;;;15.15;100.00
54172;BME280;40076;52.354;4.970;2023-05-11T09:22:05;101643.09;;;15.16;100.00
54172;BME280;40076;52.354;4.970;2023-05-11T09:24:31;101649.34;;;15.17;100.00
54172;BME280;40076;52.354;4.970;2023-05-11T09:27:06;101640.06;;;15.18;100.00
54172;BME280;40076;52.354;4.970;2023-05-11T09:29:33;101640.50;;;15.20;100.00
54172;BME280;40076;52.354;4.970;2023-05-11T09:31:58;101651.06;;;15.21;100.00
54172;BME280;40076;52.354;4.970;2023-05-11T09:34:23;101635.53;;;15.22;100.00
54172;BME280;40076;52.354;4.970;2023-05-11T09:36:51;101637.94;;;15.23;100.00
54172;BME280;40076;52.354;4.970;2023-05-11T09:39:17;101643.06;;;15.25;100.00
54172;BME280;40076;52.354;4.970;2023-05-11T09:41:45;101641.25;;;15.29;100.00
54172;BME280;40076;52.354;4.970;2023-05-11T09:44:12;101641.41;;;15.32;100.00
54172;BME280;40076;52.354;4.970;2023-05-11T09:46:39;101642.66;;;15.35;100.00
54172;BME280;40076;52.354;4.970;2023-05-11T09:49:06;101645.03;;;15.36;100.00
54172;BME280;40076;52.354;4.970;2023-05-11T09:51:33;101644.72;;;15.38;100.00
54172;BME280;40076;52.354;4.970;2023-05-11T09:53:59;101648.25;;;15.38;100.00
54172;BME280;40076;52.354;4.970;2023-05-11T09:56:43;101643.59;;;15.39;100.00
54172;BME280;40076;52.354;4.970;2023-05-11T09:59:08;101647.44;;;15.38;100.00
54172;BME280;40076;52.354;4.970;2023-05-11T10:01:34;101652.56;;;15.39;100.00
54172;BME280;40076;52.354;4.970;2023-05-11T10:04:03;101654.16;;;15.40;100.00
54172;BME280;40076;52.354;4.970;2023-05-11T10:06:48;101660.38;;;15.41;100.00
54172;BME280;40076;52.354;4.970;2023-05-11T10:09:15;101662.66;;;15.39;100.00
54172;BME280;40076;52.354;4.970;2023-05-11T10:11:45;101667.63;;;15.37;100.00
54172;BME280;40076;52.354;4.970;2023-05-11T10:14:12;101667.63;;;15.37;100.00
54172;BME280;40076;52.354;4.970;2023-05-11T10:16:40;101664.13;;;15.36;100.00
54172;BME280;40076;52.354;4.970;2023-05-11T10:19:06;101664.91;;;15.37;100.00
54172;BME280;40076;52.354;4.970;2023-05-11T10:21:33;101660.25;;;15.37;100.00
54172;BME280;40076;52.354;4.970;2023-05-11T10:24:00;101658.00;;;15.39;100.00
54172;BME280;40076;52.354;4.970;2023-05-11T10:26:27;101658.00;;;15.39;100.00
54172;BME280;40076;52.354;4.970;2023-05-11T10:28:54;101659.63;;;15.40;100.00
54172;BME280;40076;52.354;4.970;2023-05-11T10:31:20;101654.16;;;15.40;100.00
54172;BME280;40076;52.354;4.970;2023-05-11T10:33:49;101652.22;;;15.41;100.00
54172;BME280;40076;52.354;4.970;2023-05-11T10:36:17;101661.66;;;15.43;100.00
54172;BME280;40076;52.354;4.970;2023-05-11T10:38:42;101661.00;;;15.47;100.00
54172;BME280;40076;52.354;4.970;2023-05-11T10:43:59;101660.22;;;15.46;100.00
54172;BME280;40076;52.354;4.970;2023-05-11T10:54:59;101657.47;;;15.46;100.00
54172;BME280;40076;52.354;4.970;2023-05-11T10:58:02;101662.72;;;15.51;100.00
54172;BME280;40076;52.354;4.970;2023-05-11T11:03:26;101656.78;;;15.58;100.00
54172;BME280;40076;52.354;4.970;2023-05-11T11:05:51;101663.16;;;15.62;100.00
54172;BME280;40076;52.354;4.970;2023-05-11T11:08:16;101663.75;;;15.67;100.00
54172;BME280;40076;52.354;4.970;2023-05-11T11:10:42;101658.44;;;15.71;100.00
54172;BME280;40076;52.354;4.970;2023-05-11T11:13:12;101655.84;;;15.74;100.00
54172;BME280;40076;52.354;4.970;2023-05-11T11:18:23;101659.50;;;15.78;100.00
54172;BME280;40076;52.354;4.970;2023-05-11T11:20:52;101661.09;;;15.79;100.00
54172;BME280;40076;52.354;4.970;2023-05-11T11:23:40;101655.31;;;15.81;100.00
54172;BME280;40076;52.354;4.970;2023-05-11T11:26:07;101653.38;;;15.81;100.00
54172;BME280;40076;52.354;4.970;2023-05-11T11:31:22;101658.81;;;15.81;100.00
54172;BME280;40076;52.354;4.970;2023-05-11T11:33:48;101659.31;;;15.83;100.00
54172;BME280;40076;52.354;4.970;2023-05-11T11:36:14;101653.38;;;15.81;100.00
54172;BME280;40076;52.354;4.970;2023-05-11T11:38:57;101650.00;;;15.85;100.00
54172;BME280;40076;52.354;4.970;2023-05-11T11:41:29;101653.19;;;15.87;100.00
54172;BME280;40076;52.354;4.970;2023-05-11T11:43:55;101653.63;;;15.89;100.00
54172;BME280;40076;52.354;4.970;2023-05-11T11:46:28;101659.56;;;15.91;100.00
54172;BME280;40076;52.354;4.970;2023-05-11T11:49:07;101650.56;;;15.90;100.00
54172;BME280;40076;52.354;4.970;2023-05-11T11:51:34;101648.97;;;15.89;100.00
54172;BME280;40076;52.354;4.970;2023-05-11T11:54:01;101650.25;;;15.92;100.00
54172;BME280;40076;52.354;4.970;2023-05-11T12:01:22;101645.38;;;15.97;100.00
54172;BME280;40076;52.354;4.970;2023-05-11T12:06:35;101639.94;;;15.97;100.00
54172;BME280;40076;52.354;4.970;2023-05-11T12:09:01;101645.84;;;15.99;100.00
54172;BME280;40076;52.354;4.970;2023-05-11T12:11:28;101647.88;;;16.02;100.00
54172;BME280;40076;52.354;4.970;2023-05-11T12:13:53;101651.09;;;16.04;100.00
54172;BME280;40076;52.354;4.970;2023-05-11T12:16:19;101651.56;;;16.06;100.00
54172;BME280;40076;52.354;4.970;2023-05-11T12:18:55;101650.09;;;16.09;100.00
54172;BME280;40076;52.354;4.970;2023-05-11T12:21:24;101647.00;;;16.10;100.00
54172;BME280;40076;52.354;4.970;2023-05-11T12:24:00;101649.41;;;16.12;100.00
54172;BME280;40076;52.354;4.970;2023-05-11T12:26:27;101648.28;;;16.13;100.00
54172;BME280;40076;52.354;4.970;2023-05-11T12:29:10;101642.16;;;16.16;100.00
54172;BME280;40076;52.354;4.970;2023-05-11T12:31:40;101656.84;;;16.24;100.00
54172;BME280;40076;52.354;4.970;2023-05-11T12:34:05;101647.06;;;16.23;100.00
54172;BME280;40076;52.354;4.970;2023-05-11T12:36:32;101647.06;;;16.23;100.00
54172;BME280;40076;52.354;4.970;2023-05-11T12:38:58;101649.09;;;16.26;100.00
54172;BME280;40076;52.354;4.970;2023-05-11T12:41:24;101642.19;;;16.28;100.00
54172;BME280;40076;52.354;4.970;2023-05-11T12:43:51;101638.00;;;16.31;100.00
54172;BME280;40076;52.354;4.970;2023-05-11T12:46:17;101643.13;;;16.32;100.00
54172;BME280;40076;52.354;4.970;2023-05-11T12:48:44;101643.88;;;16.33;100.00
54172;BME280;40076;52.354;4.970;2023-05-11T12:51:10;101636.06;;;16.31;100.00
54172;BME280;40076;52.354;4.970;2023-05-11T12:53:35;101634.13;;;16.32;100.00
54172;BME280;40076;52.354;4.970;2023-05-11T12:56:01;101637.75;;;16.36;100.00
54172;BME280;40076;52.354;4.970;2023-05-11T12:58:35;101642.09;;;16.37;100.00
54172;BME280;40076;52.354;4.970;2023-05-11T13:01:00;101639.59;;;16.44;100.00
54172;BME280;40076;52.354;4.970;2023-05-11T13:03:27;101636.63;;;16.49;100.00
54172;BME280;40076;52.354;4.970;2023-05-11T13:06:10;101641.91;;;16.54;100.00
54172;BME280;40076;52.354;4.970;2023-05-11T13:08:42;101635.91;;;16.61;100.00
54172;BME280;40076;52.354;4.970;2023-05-11T13:11:28;101636.94;;;16.68;100.00
54172;BME280;40076;52.354;4.970;2023-05-11T13:13:55;101637.84;;;16.72;100.00
54172;BME280;40076;52.354;4.970;2023-05-11T13:16:28;101636.03;;;16.76;100.00
54172;BME280;40076;52.354;4.970;2023-05-11T13:19:01;101635.34;;;16.79;100.00
54172;BME280;40076;52.354;4.970;2023-05-11T13:21:27;101630.66;;;16.80;100.00
54172;BME280;40076;52.354;4.970;2023-05-11T13:23:54;101635.78;;;16.81;100.00